Detall de PIREP

Printer-friendly versionPDF version

[2014/09/06 08:00:00]
Flight IATA:CT3246
Pilot Number:042
Company ICAO:CAT
Aircraft Type:A320/E
PAX:146
Departing Airport: LEPA
Destination Airport: EETN
Alternate Airport:EFHK
Online: VATSIM
Route:MEROS UN853 MOBLO UZ662 LAMUR UZ67 KORED UN871 DITON T163 ZUE T125 ROMIR UN851 LOHRE UN746 BINKA N746 KOLJA M611 LOGNA Q33 SULUN
Flight Level:F360
No Slew and time accel
No pause
Crash detect
Detect pilot in Cockpit between each 30 and 45 minutes
08:00 Zero fuel Weight: 124281 Lbs, Fuel Weight: 42187 Lbs
08:00 VATSIM:LEPA 060730Z 00000KT 9999 FEW018 26/21 Q1014 NOSIG
08:00 VATSIM:EETN 060750Z VRB02KT 9999 FEW045 16/14 Q1019 NOSIG
08:09 Parking Brakes off
08:19 Take-off
08:19 Take off Weight: 165280 Lbs
08:19 Wind: 269º @ 008 Knots Heading: 241º
08:19 POS N39º 33´ 06´´ E002º 43´ 14´´
08:19 Gear Up: 138 Knots
08:19 Flaps:3 at 138 Knots
08:20 Flaps:2 at 129 Knots
08:21 Flaps:0 at 168 Knots
08:34 Wind:270º@025 Knots Heading: 057º Ground Speed: 463 Knots Altitude 26860 ft
08:44 TOC
08:44 Fuel Weight: 36590 Lb
08:49 Wind:270º@025 Knots Heading: 007º Ground Speed: 449 Knots Altitude 35987 ft
09:04 Wind:270º@025 Knots Heading: 033º Ground Speed: 458 Knots Altitude 35987 ft
09:19 Wind:270º@025 Knots Heading: 019º Ground Speed: 454 Knots Altitude 35984 ft
09:34 Wind:270º@025 Knots Heading: 021º Ground Speed: 453 Knots Altitude 35987 ft
09:49 Wind:270º@025 Knots Heading: 003º Ground Speed: 445 Knots Altitude 35987 ft
10:04 Wind:270º@025 Knots Heading: 002º Ground Speed: 445 Knots Altitude 35987 ft
10:19 Wind:270º@025 Knots Heading: 033º Ground Speed: 456 Knots Altitude 35987 ft
10:34 Wind:270º@025 Knots Heading: 038º Ground Speed: 457 Knots Altitude 36988 ft
10:49 Wind:270º@025 Knots Heading: 020º Ground Speed: 450 Knots Altitude 36988 ft
11:04 Wind:270º@025 Knots Heading: 028º Ground Speed: 453 Knots Altitude 36988 ft
11:19 Wind:270º@025 Knots Heading: 047º Ground Speed: 459 Knots Altitude 36988 ft
11:34 Wind:270º@025 Knots Heading: 050º Ground Speed: 401 Knots Altitude 36161 ft
11:34 TOD
11:34 Fuel Weight: 23363 Lb
11:49 Wind:270º@023 Knots Heading: 056º Ground Speed: 270 Knots Altitude 14750 ft
11:57 Gear Down: 233 Knots
11:57 Gear Up: 232 Knots
11:57 Flaps:1 at 232 Knots
12:02 Gear Down: 180 Knots
12:02 Flaps:2 at 174 Knots
12:02 Flaps:3 at 173 Knots
12:03 Flaps:4 at 162 Knots
12:03 Flaps:5 at 162 Knots
12:04 Wind:269º@008 Knots Heading: 269º Ground Speed: 156 Knots Altitude 1364 ft
12:05 TouchDown:Rate -297 ft/min Speed: 167 Knots
12:05 VATSIM:EETN 061150Z 33006KT 290V010 9999 SCT039 19/12 Q1019 NOSIG
12:05 Land
12:05 Wind:269º@008 Knots
12:05 Heading: 276º
12:05 Flight Duration: 03:46
12:05 Landing Weight: 146158 Lbs
12:05 POS N59º 24´ 48´´ E024º 49´ 04´´
12:07 Parking brakes on
12:07 Block to Block Duration: 03:58
12:07 Final Fuel: 21695 Lbls
12:07 Spent Fuel: 20491 Lbls
12:07 Flight Length: 1594 NM
12:07 TOD Land Length: 143 NM

Exportar CSV

Powered by Drupal - Modified by Danger4k